sensor_id;sensor_type;location;lat;lon;timestamp;P1;durP1;ratioP1;P2;durP2;ratioP2
50932;SDS011;36921;49.006;9.292;2022-10-16T00:01:36;6.45;;;1.90;;
50932;SDS011;36921;49.006;9.292;2022-10-16T00:04:03;4.82;;;1.02;;
50932;SDS011;36921;49.006;9.292;2022-10-16T00:06:29;1.98;;;0.95;;
50932;SDS011;36921;49.006;9.292;2022-10-16T00:08:55;5.63;;;1.10;;
50932;SDS011;36921;49.006;9.292;2022-10-16T00:11:31;1.85;;;0.88;;
50932;SDS011;36921;49.006;9.292;2022-10-16T00:13:59;2.80;;;0.82;;
50932;SDS011;36921;49.006;9.292;2022-10-16T00:16:25;2.15;;;1.00;;
50932;SDS011;36921;49.006;9.292;2022-10-16T00:18:52;2.15;;;1.10;;
50932;SDS011;36921;49.006;9.292;2022-10-16T00:21:18;3.20;;;1.20;;
50932;SDS011;36921;49.006;9.292;2022-10-16T00:23:46;2.30;;;1.10;;
50932;SDS011;36921;49.006;9.292;2022-10-16T00:26:12;1.55;;;1.10;;
50932;SDS011;36921;49.006;9.292;2022-10-16T00:28:40;3.80;;;1.37;;
50932;SDS011;36921;49.006;9.292;2022-10-16T00:31:06;6.35;;;1.40;;
50932;SDS011;36921;49.006;9.292;2022-10-16T00:33:34;2.38;;;1.23;;
50932;SDS011;36921;49.006;9.292;2022-10-16T00:36:01;4.03;;;1.33;;
50932;SDS011;36921;49.006;9.292;2022-10-16T00:38:28;10.18;;;1.60;;
50932;SDS011;36921;49.006;9.292;2022-10-16T00:40:53;3.85;;;1.05;;
50932;SDS011;36921;49.006;9.292;2022-10-16T00:46:03;5.82;;;1.40;;
50932;SDS011;36921;49.006;9.292;2022-10-16T00:48:37;3.30;;;1.40;;
50932;SDS011;36921;49.006;9.292;2022-10-16T00:51:02;2.30;;;1.15;;
50932;SDS011;36921;49.006;9.292;2022-10-16T00:53:30;4.90;;;1.20;;
50932;SDS011;36921;49.006;9.292;2022-10-16T00:55:56;4.15;;;1.27;;
50932;SDS011;36921;49.006;9.292;2022-10-16T00:58:21;1.95;;;0.80;;
50932;SDS011;36921;49.006;9.292;2022-10-16T01:00:46;2.72;;;1.00;;
50932;SDS011;36921;49.006;9.292;2022-10-16T01:03:23;1.42;;;0.73;;
50932;SDS011;36921;49.006;9.292;2022-10-16T01:05:59;2.38;;;1.10;;
50932;SDS011;36921;49.006;9.292;2022-10-16T01:08:39;2.90;;;1.40;;
50932;SDS011;36921;49.006;9.292;2022-10-16T01:11:18;2.60;;;1.00;;
50932;SDS011;36921;49.006;9.292;2022-10-16T01:13:48;2.58;;;1.10;;
50932;SDS011;36921;49.006;9.292;2022-10-16T01:16:24;3.63;;;1.00;;
50932;SDS011;36921;49.006;9.292;2022-10-16T01:21:35;11.15;;;1.50;;
50932;SDS011;36921;49.006;9.292;2022-10-16T01:27:09;2.33;;;1.15;;
50932;SDS011;36921;49.006;9.292;2022-10-16T01:29:39;3.53;;;1.10;;
50932;SDS011;36921;49.006;9.292;2022-10-16T01:32:46;1.45;;;0.98;;
50932;SDS011;36921;49.006;9.292;2022-10-16T01:35:05;1.40;;;0.80;;
50932;SDS011;36921;49.006;9.292;2022-10-16T01:40:09;1.33;;;0.90;;
50932;SDS011;36921;49.006;9.292;2022-10-16T01:42:43;1.55;;;0.80;;
50932;SDS011;36921;49.006;9.292;2022-10-16T01:45:14;3.40;;;0.80;;
50932;SDS011;36921;49.006;9.292;2022-10-16T01:47:44;1.83;;;0.75;;
50932;SDS011;36921;49.006;9.292;2022-10-16T01:50:11;3.88;;;1.30;;
50932;SDS011;36921;49.006;9.292;2022-10-16T01:52:40;1.57;;;0.90;;
50932;SDS011;36921;49.006;9.292;2022-10-16T01:55:09;1.02;;;0.70;;
50932;SDS011;36921;49.006;9.292;2022-10-16T01:57:37;1.45;;;0.90;;
50932;SDS011;36921;49.006;9.292;2022-10-16T02:00:07;1.17;;;0.90;;
50932;SDS011;36921;49.006;9.292;2022-10-16T02:02:35;1.75;;;1.25;;
50932;SDS011;36921;49.006;9.292;2022-10-16T02:05:05;1.55;;;0.60;;
50932;SDS011;36921;49.006;9.292;2022-10-16T02:07:54;2.05;;;0.80;;
50932;SDS011;36921;49.006;9.292;2022-10-16T02:10:20;1.23;;;0.88;;
50932;SDS011;36921;49.006;9.292;2022-10-16T02:12:50;5.20;;;1.15;;
50932;SDS011;36921;49.006;9.292;2022-10-16T02:15:26;3.40;;;0.82;;
50932;SDS011;36921;49.006;9.292;2022-10-16T02:17:51;2.55;;;0.88;;
50932;SDS011;36921;49.006;9.292;2022-10-16T02:20:16;1.58;;;0.80;;
50932;SDS011;36921;49.006;9.292;2022-10-16T02:22:48;2.27;;;1.00;;
50932;SDS011;36921;49.006;9.292;2022-10-16T02:30:49;2.38;;;0.90;;
50932;SDS011;36921;49.006;9.292;2022-10-16T02:33:19;1.17;;;0.88;;
50932;SDS011;36921;49.006;9.292;2022-10-16T02:35:47;1.23;;;0.82;;
50932;SDS011;36921;49.006;9.292;2022-10-16T02:38:15;5.37;;;1.10;;
50932;SDS011;36921;49.006;9.292;2022-10-16T02:40:42;2.55;;;0.90;;
50932;SDS011;36921;49.006;9.292;2022-10-16T02:43:08;1.55;;;0.90;;
50932;SDS011;36921;49.006;9.292;2022-10-16T02:45:34;4.78;;;1.30;;
50932;SDS011;36921;49.006;9.292;2022-10-16T02:48:00;2.13;;;0.88;;
50932;SDS011;36921;49.006;9.292;2022-10-16T02:50:25;2.05;;;1.00;;
50932;SDS011;36921;49.006;9.292;2022-10-16T02:52:51;1.80;;;0.85;;
50932;SDS011;36921;49.006;9.292;2022-10-16T02:55:16;7.45;;;1.13;;
50932;SDS011;36921;49.006;9.292;2022-10-16T02:57:42;2.45;;;0.80;;
50932;SDS011;36921;49.006;9.292;2022-10-16T03:00:09;1.90;;;0.80;;
50932;SDS011;36921;49.006;9.292;2022-10-16T03:02:36;3.10;;;1.10;;
50932;SDS011;36921;49.006;9.292;2022-10-16T03:05:01;6.10;;;1.00;;
50932;SDS011;36921;49.006;9.292;2022-10-16T03:07:27;4.20;;;0.93;;
50932;SDS011;36921;49.006;9.292;2022-10-16T03:09:52;1.63;;;1.00;;
50932;SDS011;36921;49.006;9.292;2022-10-16T03:12:19;3.70;;;0.98;;
50932;SDS011;36921;49.006;9.292;2022-10-16T03:14:45;1.50;;;1.00;;
50932;SDS011;36921;49.006;9.292;2022-10-16T03:17:13;4.97;;;1.02;;
50932;SDS011;36921;49.006;9.292;2022-10-16T03:19:41;1.58;;;0.95;;
50932;SDS011;36921;49.006;9.292;2022-10-16T03:22:07;2.78;;;1.08;;
50932;SDS011;36921;49.006;9.292;2022-10-16T03:24:33;2.72;;;1.10;;
50932;SDS011;36921;49.006;9.292;2022-10-16T03:26:58;7.70;;;1.10;;
50932;SDS011;36921;49.006;9.292;2022-10-16T03:29:24;4.55;;;1.08;;
50932;SDS011;36921;49.006;9.292;2022-10-16T03:31:50;3.03;;;0.73;;
50932;SDS011;36921;49.006;9.292;2022-10-16T03:34:16;1.50;;;0.88;;
50932;SDS011;36921;49.006;9.292;2022-10-16T03:36:41;1.55;;;1.08;;
50932;SDS011;36921;49.006;9.292;2022-10-16T03:39:07;2.60;;;1.13;;
50932;SDS011;36921;49.006;9.292;2022-10-16T03:41:32;4.00;;;1.30;;
50932;SDS011;36921;49.006;9.292;2022-10-16T03:43:58;1.80;;;1.10;;
50932;SDS011;36921;49.006;9.292;2022-10-16T03:46:23;3.70;;;0.98;;
50932;SDS011;36921;49.006;9.292;2022-10-16T03:48:50;2.67;;;1.00;;
50932;SDS011;36921;49.006;9.292;2022-10-16T03:51:15;3.13;;;1.20;;
50932;SDS011;36921;49.006;9.292;2022-10-16T03:53:40;2.13;;;0.85;;
50932;SDS011;36921;49.006;9.292;2022-10-16T03:56:06;2.65;;;1.00;;
50932;SDS011;36921;49.006;9.292;2022-10-16T03:58:31;3.67;;;1.52;;
50932;SDS011;36921;49.006;9.292;2022-10-16T04:00:57;2.47;;;1.38;;
50932;SDS011;36921;49.006;9.292;2022-10-16T04:03:22;1.45;;;0.85;;
50932;SDS011;36921;49.006;9.292;2022-10-16T04:05:48;1.50;;;1.00;;
50932;SDS011;36921;49.006;9.292;2022-10-16T04:08:14;2.97;;;0.80;;
50932;SDS011;36921;49.006;9.292;2022-10-16T04:10:39;1.67;;;1.02;;
50932;SDS011;36921;49.006;9.292;2022-10-16T04:13:04;2.78;;;1.10;;
50932;SDS011;36921;49.006;9.292;2022-10-16T04:15:30;2.08;;;1.00;;
50932;SDS011;36921;49.006;9.292;2022-10-16T04:23:34;1.88;;;1.00;;
50932;SDS011;36921;49.006;9.292;2022-10-16T04:28:34;1.75;;;1.00;;
50932;SDS011;36921;49.006;9.292;2022-10-16T04:30:59;6.03;;;1.20;;
50932;SDS011;36921;49.006;9.292;2022-10-16T04:33:24;1.33;;;1.00;;
50932;SDS011;36921;49.006;9.292;2022-10-16T04:35:56;1.48;;;0.90;;
50932;SDS011;36921;49.006;9.292;2022-10-16T04:38:22;3.30;;;1.17;;
50932;SDS011;36921;49.006;9.292;2022-10-16T04:40:48;2.40;;;1.30;;
50932;SDS011;36921;49.006;9.292;2022-10-16T04:43:13;4.75;;;1.77;;
50932;SDS011;36921;49.006;9.292;2022-10-16T04:45:39;2.75;;;0.90;;
50932;SDS011;36921;49.006;9.292;2022-10-16T04:48:04;1.75;;;0.90;;
50932;SDS011;36921;49.006;9.292;2022-10-16T04:50:29;1.83;;;1.02;;
50932;SDS011;36921;49.006;9.292;2022-10-16T04:52:55;2.70;;;0.98;;
50932;SDS011;36921;49.006;9.292;2022-10-16T04:55:20;2.63;;;1.05;;
50932;SDS011;36921;49.006;9.292;2022-10-16T04:57:46;1.38;;;0.90;;
50932;SDS011;36921;49.006;9.292;2022-10-16T05:00:11;2.42;;;0.70;;
50932;SDS011;36921;49.006;9.292;2022-10-16T05:02:37;6.13;;;1.17;;
50932;SDS011;36921;49.006;9.292;2022-10-16T05:05:03;5.82;;;0.82;;
50932;SDS011;36921;49.006;9.292;2022-10-16T05:07:29;4.82;;;1.08;;
50932;SDS011;36921;49.006;9.292;2022-10-16T05:09:54;1.65;;;0.82;;
50932;SDS011;36921;49.006;9.292;2022-10-16T05:12:19;6.47;;;1.08;;
50932;SDS011;36921;49.006;9.292;2022-10-16T05:14:45;1.27;;;0.80;;
50932;SDS011;36921;49.006;9.292;2022-10-16T05:17:10;3.00;;;0.80;;
50932;SDS011;36921;49.006;9.292;2022-10-16T05:19:36;3.30;;;0.93;;
50932;SDS011;36921;49.006;9.292;2022-10-16T05:22:01;3.22;;;0.70;;
50932;SDS011;36921;49.006;9.292;2022-10-16T05:24:27;6.28;;;0.98;;
50932;SDS011;36921;49.006;9.292;2022-10-16T05:26:52;2.58;;;0.73;;
50932;SDS011;36921;49.006;9.292;2022-10-16T05:29:18;2.03;;;0.90;;
50932;SDS011;36921;49.006;9.292;2022-10-16T05:31:44;2.53;;;1.10;;
50932;SDS011;36921;49.006;9.292;2022-10-16T05:34:09;3.95;;;0.85;;
50932;SDS011;36921;49.006;9.292;2022-10-16T05:36:35;1.75;;;0.90;;
50932;SDS011;36921;49.006;9.292;2022-10-16T05:39:00;3.15;;;0.93;;
50932;SDS011;36921;49.006;9.292;2022-10-16T05:41:26;3.00;;;0.70;;
50932;SDS011;36921;49.006;9.292;2022-10-16T05:43:51;1.45;;;0.80;;
50932;SDS011;36921;49.006;9.292;2022-10-16T05:46:17;3.33;;;0.70;;
50932;SDS011;36921;49.006;9.292;2022-10-16T05:48:43;3.50;;;1.00;;
50932;SDS011;36921;49.006;9.292;2022-10-16T05:51:09;2.53;;;0.80;;
50932;SDS011;36921;49.006;9.292;2022-10-16T05:53:37;1.50;;;0.80;;
50932;SDS011;36921;49.006;9.292;2022-10-16T05:56:03;2.38;;;1.00;;
50932;SDS011;36921;49.006;9.292;2022-10-16T05:58:31;2.13;;;0.90;;
50932;SDS011;36921;49.006;9.292;2022-10-16T06:00:59;4.63;;;0.97;;
50932;SDS011;36921;49.006;9.292;2022-10-16T06:03:29;3.55;;;1.00;;
50932;SDS011;36921;49.006;9.292;2022-10-16T06:05:54;1.65;;;0.93;;
50932;SDS011;36921;49.006;9.292;2022-10-16T06:08:20;5.13;;;1.17;;
50932;SDS011;36921;49.006;9.292;2022-10-16T06:10:47;3.65;;;1.40;;
50932;SDS011;36921;49.006;9.292;2022-10-16T06:13:12;2.97;;;1.23;;
50932;SDS011;36921;49.006;9.292;2022-10-16T06:15:39;1.65;;;1.08;;
50932;SDS011;36921;49.006;9.292;2022-10-16T06:18:09;1.48;;;0.90;;
50932;SDS011;36921;49.006;9.292;2022-10-16T06:20:35;2.08;;;1.10;;
50932;SDS011;36921;49.006;9.292;2022-10-16T06:23:01;4.28;;;0.98;;
50932;SDS011;36921;49.006;9.292;2022-10-16T06:25:29;3.97;;;1.30;;
50932;SDS011;36921;49.006;9.292;2022-10-16T06:27:55;2.60;;;0.82;;
50932;SDS011;36921;49.006;9.292;2022-10-16T06:30:20;4.43;;;1.13;;
50932;SDS011;36921;49.006;9.292;2022-10-16T06:32:46;5.93;;;1.35;;
50932;SDS011;36921;49.006;9.292;2022-10-16T06:35:11;8.68;;;1.30;;
50932;SDS011;36921;49.006;9.292;2022-10-16T06:37:37;5.82;;;2.47;;
50932;SDS011;36921;49.006;9.292;2022-10-16T06:40:02;5.97;;;2.40;;
50932;SDS011;36921;49.006;9.292;2022-10-16T06:42:29;6.43;;;1.80;;
50932;SDS011;36921;49.006;9.292;2022-10-16T06:44:55;3.60;;;1.70;;
50932;SDS011;36921;49.006;9.292;2022-10-16T06:47:20;4.90;;;1.45;;
50932;SDS011;36921;49.006;9.292;2022-10-16T06:49:46;4.25;;;1.42;;
50932;SDS011;36921;49.006;9.292;2022-10-16T06:52:11;3.53;;;1.35;;
50932;SDS011;36921;49.006;9.292;2022-10-16T06:54:37;2.72;;;1.50;;
50932;SDS011;36921;49.006;9.292;2022-10-16T06:57:02;3.08;;;1.50;;
50932;SDS011;36921;49.006;9.292;2022-10-16T06:59:27;3.88;;;1.33;;
50932;SDS011;36921;49.006;9.292;2022-10-16T07:01:53;3.15;;;0.80;;
50932;SDS011;36921;49.006;9.292;2022-10-16T07:04:18;5.55;;;0.90;;
50932;SDS011;36921;49.006;9.292;2022-10-16T07:06:44;2.70;;;1.13;;
50932;SDS011;36921;49.006;9.292;2022-10-16T07:09:09;5.90;;;1.20;;
50932;SDS011;36921;49.006;9.292;2022-10-16T07:11:36;3.20;;;0.80;;
50932;SDS011;36921;49.006;9.292;2022-10-16T07:14:04;3.58;;;0.73;;
50932;SDS011;36921;49.006;9.292;2022-10-16T07:16:30;3.40;;;1.00;;
50932;SDS011;36921;49.006;9.292;2022-10-16T07:18:58;2.60;;;0.95;;
50932;SDS011;36921;49.006;9.292;2022-10-16T07:21:28;5.15;;;1.80;;
50932;SDS011;36921;49.006;9.292;2022-10-16T07:24:00;4.60;;;1.45;;
50932;SDS011;36921;49.006;9.292;2022-10-16T07:26:27;7.82;;;1.50;;
50932;SDS011;36921;49.006;9.292;2022-10-16T07:28:53;2.03;;;1.20;;
50932;SDS011;36921;49.006;9.292;2022-10-16T07:31:19;5.55;;;1.60;;
50932;SDS011;36921;49.006;9.292;2022-10-16T07:33:45;6.75;;;1.40;;
50932;SDS011;36921;49.006;9.292;2022-10-16T07:36:13;1.92;;;1.02;;
50932;SDS011;36921;49.006;9.292;2022-10-16T07:38:39;4.10;;;1.00;;
50932;SDS011;36921;49.006;9.292;2022-10-16T07:41:05;3.28;;;0.73;;
50932;SDS011;36921;49.006;9.292;2022-10-16T07:43:32;4.78;;;1.10;;
50932;SDS011;36921;49.006;9.292;2022-10-16T07:45:58;2.75;;;0.98;;
50932;SDS011;36921;49.006;9.292;2022-10-16T07:48:23;2.45;;;1.02;;
50932;SDS011;36921;49.006;9.292;2022-10-16T07:50:51;6.47;;;1.30;;
50932;SDS011;36921;49.006;9.292;2022-10-16T07:53:16;1.88;;;1.13;;
50932;SDS011;36921;49.006;9.292;2022-10-16T07:55:42;3.30;;;1.35;;
50932;SDS011;36921;49.006;9.292;2022-10-16T07:58:08;4.13;;;1.10;;
50932;SDS011;36921;49.006;9.292;2022-10-16T08:00:34;3.00;;;1.00;;
50932;SDS011;36921;49.006;9.292;2022-10-16T08:03:01;7.65;;;1.10;;
50932;SDS011;36921;49.006;9.292;2022-10-16T08:05:27;2.75;;;1.30;;
50932;SDS011;36921;49.006;9.292;2022-10-16T08:07:54;2.95;;;1.27;;
50932;SDS011;36921;49.006;9.292;2022-10-16T08:10:22;1.63;;;0.70;;
50932;SDS011;36921;49.006;9.292;2022-10-16T08:12:49;1.55;;;0.80;;
50932;SDS011;36921;49.006;9.292;2022-10-16T08:15:15;3.20;;;0.75;;
50932;SDS011;36921;49.006;9.292;2022-10-16T08:17:40;2.70;;;0.70;;
50932;SDS011;36921;49.006;9.292;2022-10-16T08:20:05;1.20;;;0.80;;
50932;SDS011;36921;49.006;9.292;2022-10-16T08:22:31;2.95;;;0.90;;
50932;SDS011;36921;49.006;9.292;2022-10-16T08:24:57;6.82;;;0.95;;
50932;SDS011;36921;49.006;9.292;2022-10-16T08:27:22;1.75;;;0.88;;
50932;SDS011;36921;49.006;9.292;2022-10-16T08:29:50;2.38;;;0.75;;
50932;SDS011;36921;49.006;9.292;2022-10-16T08:32:15;1.70;;;0.77;;
50932;SDS011;36921;49.006;9.292;2022-10-16T08:34:41;1.17;;;0.65;;
50932;SDS011;36921;49.006;9.292;2022-10-16T08:37:06;0.75;;;0.50;;
50932;SDS011;36921;49.006;9.292;2022-10-16T08:39:33;0.77;;;0.60;;
50932;SDS011;36921;49.006;9.292;2022-10-16T08:47:47;4.40;;;0.70;;
50932;SDS011;36921;49.006;9.292;2022-10-16T08:50:21;2.47;;;0.70;;
50932;SDS011;36921;49.006;9.292;2022-10-16T08:52:49;5.35;;;0.85;;
50932;SDS011;36921;49.006;9.292;2022-10-16T08:55:28;4.35;;;0.60;;
50932;SDS011;36921;49.006;9.292;2022-10-16T08:57:57;1.63;;;0.68;;
50932;SDS011;36921;49.006;9.292;2022-10-16T09:00:23;6.07;;;1.05;;
50932;SDS011;36921;49.006;9.292;2022-10-16T09:17:04;1.98;;;1.00;;
50932;SDS011;36921;49.006;9.292;2022-10-16T09:19:46;5.68;;;0.90;;
50932;SDS011;36921;49.006;9.292;2022-10-16T09:22:18;5.88;;;0.70;;
50932;SDS011;36921;49.006;9.292;2022-10-16T09:24:50;13.07;;;0.88;;
50932;SDS011;36921;49.006;9.292;2022-10-16T09:27:15;3.78;;;0.90;;
50932;SDS011;36921;49.006;9.292;2022-10-16T09:29:40;2.35;;;0.85;;
50932;SDS011;36921;49.006;9.292;2022-10-16T09:32:17;1.15;;;0.70;;
50932;SDS011;36921;49.006;9.292;2022-10-16T09:34:47;5.80;;;0.95;;
50932;SDS011;36921;49.006;9.292;2022-10-16T09:37:17;3.38;;;1.92;;
50932;SDS011;36921;49.006;9.292;2022-10-16T09:39:47;2.72;;;0.70;;
50932;SDS011;36921;49.006;9.292;2022-10-16T09:42:26;3.17;;;0.85;;
50932;SDS011;36921;49.006;9.292;2022-10-16T09:44:56;1.88;;;0.80;;
50932;SDS011;36921;49.006;9.292;2022-10-16T09:47:23;2.80;;;1.25;;
50932;SDS011;36921;49.006;9.292;2022-10-16T09:49:51;4.22;;;0.80;;
50932;SDS011;36921;49.006;9.292;2022-10-16T09:52:24;2.47;;;0.80;;
50932;SDS011;36921;49.006;9.292;2022-10-16T09:57:16;4.82;;;1.05;;
50932;SDS011;36921;49.006;9.292;2022-10-16T09:59:46;4.57;;;0.80;;
50932;SDS011;36921;49.006;9.292;2022-10-16T10:02:13;4.57;;;0.80;;
50932;SDS011;36921;49.006;9.292;2022-10-16T10:05:01;1.67;;;0.65;;
50932;SDS011;36921;49.006;9.292;2022-10-16T10:07:27;3.58;;;0.73;;
50932;SDS011;36921;49.006;9.292;2022-10-16T10:09:58;1.77;;;0.70;;
50932;SDS011;36921;49.006;9.292;2022-10-16T10:12:25;3.95;;;0.80;;
50932;SDS011;36921;49.006;9.292;2022-10-16T10:14:53;5.57;;;0.70;;
50932;SDS011;36921;49.006;9.292;2022-10-16T10:17:23;3.28;;;1.10;;
50932;SDS011;36921;49.006;9.292;2022-10-16T10:19:53;2.28;;;0.90;;
50932;SDS011;36921;49.006;9.292;2022-10-16T10:33:07;2.83;;;0.77;;
50932;SDS011;36921;49.006;9.292;2022-10-16T10:43:44;3.08;;;0.80;;
50932;SDS011;36921;49.006;9.292;2022-10-16T10:46:23;3.58;;;1.10;;
50932;SDS011;36921;49.006;9.292;2022-10-16T10:51:35;1.48;;;0.88;;
50932;SDS011;36921;49.006;9.292;2022-10-16T10:54:15;1.52;;;0.70;;
50932;SDS011;36921;49.006;9.292;2022-10-16T11:02:35;5.97;;;1.80;;
50932;SDS011;36921;49.006;9.292;2022-10-16T11:07:47;1.85;;;0.82;;
50932;SDS011;36921;49.006;9.292;2022-10-16T11:10:18;1.00;;;0.77;;
50932;SDS011;36921;49.006;9.292;2022-10-16T11:12:58;1.42;;;0.80;;
50932;SDS011;36921;49.006;9.292;2022-10-16T11:15:34;1.17;;;0.70;;
50932;SDS011;36921;49.006;9.292;2022-10-16T11:18:06;5.40;;;1.08;;
50932;SDS011;36921;49.006;9.292;2022-10-16T11:20:40;2.05;;;1.25;;
50932;SDS011;36921;49.006;9.292;2022-10-16T11:23:14;5.78;;;1.33;;
50932;SDS011;36921;49.006;9.292;2022-10-16T11:25:46;0.88;;;0.65;;
50932;SDS011;36921;49.006;9.292;2022-10-16T11:30:57;1.75;;;0.88;;
50932;SDS011;36921;49.006;9.292;2022-10-16T11:33:39;2.90;;;0.90;;
50932;SDS011;36921;49.006;9.292;2022-10-16T11:47:00;2.38;;;0.73;;
50932;SDS011;36921;49.006;9.292;2022-10-16T11:49:38;3.00;;;0.98;;
50932;SDS011;36921;49.006;9.292;2022-10-16T11:55:05;1.17;;;0.68;;
50932;SDS011;36921;49.006;9.292;2022-10-16T11:57:44;2.88;;;1.63;;
50932;SDS011;36921;49.006;9.292;2022-10-16T12:03:32;1.77;;;0.57;;
50932;SDS011;36921;49.006;9.292;2022-10-16T12:08:20;2.90;;;1.55;;
50932;SDS011;36921;49.006;9.292;2022-10-16T12:10:46;1.58;;;0.80;;
50932;SDS011;36921;49.006;9.292;2022-10-16T12:16:03;6.45;;;0.80;;
50932;SDS011;36921;49.006;9.292;2022-10-16T12:18:30;5.38;;;1.83;;
50932;SDS011;36921;49.006;9.292;2022-10-16T12:20:58;1.77;;;0.60;;
50932;SDS011;36921;49.006;9.292;2022-10-16T12:23:29;1.95;;;0.73;;
50932;SDS011;36921;49.006;9.292;2022-10-16T12:25:56;1.67;;;0.70;;
50932;SDS011;36921;49.006;9.292;2022-10-16T12:28:27;1.75;;;0.57;;
50932;SDS011;36921;49.006;9.292;2022-10-16T12:30:56;2.00;;;0.70;;
50932;SDS011;36921;49.006;9.292;2022-10-16T12:33:25;0.60;;;0.57;;
50932;SDS011;36921;49.006;9.292;2022-10-16T12:35:52;2.45;;;0.40;;
50932;SDS011;36921;49.006;9.292;2022-10-16T12:38:19;1.42;;;0.70;;
50932;SDS011;36921;49.006;9.292;2022-10-16T12:40:57;1.58;;;0.77;;
50932;SDS011;36921;49.006;9.292;2022-10-16T12:43:40;7.60;;;0.70;;
50932;SDS011;36921;49.006;9.292;2022-10-16T12:48:35;2.13;;;0.63;;
50932;SDS011;36921;49.006;9.292;2022-10-16T12:51:11;1.92;;;0.50;;
50932;SDS011;36921;49.006;9.292;2022-10-16T12:54:48;0.93;;;0.50;;
50932;SDS011;36921;49.006;9.292;2022-10-16T13:08:01;6.10;;;0.70;;
50932;SDS011;36921;49.006;9.292;2022-10-16T13:13:51;2.13;;;0.68;;
50932;SDS011;36921;49.006;9.292;2022-10-16T13:16:45;9.43;;;0.60;;
50932;SDS011;36921;49.006;9.292;2022-10-16T13:22:11;2.28;;;0.50;;
50932;SDS011;36921;49.006;9.292;2022-10-16T13:27:49;1.85;;;0.80;;
50932;SDS011;36921;49.006;9.292;2022-10-16T13:31:12;2.05;;;0.85;;
50932;SDS011;36921;49.006;9.292;2022-10-16T13:36:05;1.75;;;0.60;;
50932;SDS011;36921;49.006;9.292;2022-10-16T13:38:34;2.83;;;0.73;;
50932;SDS011;36921;49.006;9.292;2022-10-16T13:43:29;1.90;;;0.75;;
50932;SDS011;36921;49.006;9.292;2022-10-16T13:46:03;2.05;;;0.88;;
50932;SDS011;36921;49.006;9.292;2022-10-16T13:48:31;0.82;;;0.70;;
50932;SDS011;36921;49.006;9.292;2022-10-16T13:51:02;4.45;;;0.68;;
50932;SDS011;36921;49.006;9.292;2022-10-16T13:53:36;3.33;;;0.82;;
50932;SDS011;36921;49.006;9.292;2022-10-16T13:56:03;1.25;;;0.80;;
50932;SDS011;36921;49.006;9.292;2022-10-16T13:58:30;1.33;;;0.87;;
50932;SDS011;36921;49.006;9.292;2022-10-16T14:00:57;1.85;;;0.70;;
50932;SDS011;36921;49.006;9.292;2022-10-16T14:03:24;1.60;;;0.65;;
50932;SDS011;36921;49.006;9.292;2022-10-16T14:05:52;1.48;;;0.68;;
50932;SDS011;36921;49.006;9.292;2022-10-16T14:08:20;1.33;;;0.73;;
50932;SDS011;36921;49.006;9.292;2022-10-16T14:10:48;1.50;;;0.70;;
50932;SDS011;36921;49.006;9.292;2022-10-16T14:13:20;4.20;;;0.82;;
50932;SDS011;36921;49.006;9.292;2022-10-16T14:15:53;3.38;;;0.65;;
50932;SDS011;36921;49.006;9.292;2022-10-16T14:18:21;1.50;;;0.75;;
50932;SDS011;36921;49.006;9.292;2022-10-16T14:20:49;5.65;;;1.52;;
50932;SDS011;36921;49.006;9.292;2022-10-16T14:23:20;3.35;;;1.00;;
50932;SDS011;36921;49.006;9.292;2022-10-16T14:28:35;0.95;;;0.80;;
50932;SDS011;36921;49.006;9.292;2022-10-16T14:31:02;2.92;;;0.73;;
50932;SDS011;36921;49.006;9.292;2022-10-16T14:33:48;2.67;;;0.80;;
50932;SDS011;36921;49.006;9.292;2022-10-16T14:36:14;2.45;;;1.00;;
50932;SDS011;36921;49.006;9.292;2022-10-16T14:38:58;2.20;;;0.88;;
50932;SDS011;36921;49.006;9.292;2022-10-16T14:41:24;2.58;;;1.00;;
50932;SDS011;36921;49.006;9.292;2022-10-16T14:43:50;2.28;;;0.80;;
50932;SDS011;36921;49.006;9.292;2022-10-16T14:46:19;2.70;;;1.05;;
50932;SDS011;36921;49.006;9.292;2022-10-16T14:48:46;3.55;;;0.80;;
50932;SDS011;36921;49.006;9.292;2022-10-16T14:51:14;4.78;;;1.10;;
50932;SDS011;36921;49.006;9.292;2022-10-16T14:53:41;1.70;;;1.13;;
50932;SDS011;36921;49.006;9.292;2022-10-16T14:56:14;1.30;;;0.80;;
50932;SDS011;36921;49.006;9.292;2022-10-16T14:58:43;2.33;;;1.00;;
50932;SDS011;36921;49.006;9.292;2022-10-16T15:01:09;7.32;;;0.93;;
50932;SDS011;36921;49.006;9.292;2022-10-16T15:03:36;1.88;;;1.02;;
50932;SDS011;36921;49.006;9.292;2022-10-16T15:06:01;3.33;;;1.13;;
50932;SDS011;36921;49.006;9.292;2022-10-16T15:08:27;2.60;;;1.20;;
50932;SDS011;36921;49.006;9.292;2022-10-16T15:10:52;6.18;;;1.10;;
50932;SDS011;36921;49.006;9.292;2022-10-16T15:13:17;7.35;;;1.38;;
50932;SDS011;36921;49.006;9.292;2022-10-16T15:15:46;2.83;;;1.17;;
50932;SDS011;36921;49.006;9.292;2022-10-16T15:18:14;1.42;;;1.00;;
50932;SDS011;36921;49.006;9.292;2022-10-16T15:20:45;1.85;;;0.88;;
50932;SDS011;36921;49.006;9.292;2022-10-16T15:23:13;1.30;;;0.88;;
50932;SDS011;36921;49.006;9.292;2022-10-16T15:25:44;3.13;;;0.90;;
50932;SDS011;36921;49.006;9.292;2022-10-16T15:28:12;4.40;;;2.53;;
50932;SDS011;36921;49.006;9.292;2022-10-16T15:30:38;4.15;;;1.20;;
50932;SDS011;36921;49.006;9.292;2022-10-16T15:33:05;5.50;;;1.42;;
50932;SDS011;36921;49.006;9.292;2022-10-16T15:35:37;5.90;;;1.20;;
50932;SDS011;36921;49.006;9.292;2022-10-16T15:38:02;4.32;;;1.15;;
50932;SDS011;36921;49.006;9.292;2022-10-16T15:40:27;3.90;;;1.10;;
50932;SDS011;36921;49.006;9.292;2022-10-16T15:42:53;3.83;;;1.67;;
50932;SDS011;36921;49.006;9.292;2022-10-16T15:45:18;3.47;;;1.80;;
50932;SDS011;36921;49.006;9.292;2022-10-16T15:47:44;2.35;;;1.38;;
50932;SDS011;36921;49.006;9.292;2022-10-16T15:50:11;6.95;;;1.75;;
50932;SDS011;36921;49.006;9.292;2022-10-16T15:52:37;6.40;;;1.60;;
50932;SDS011;36921;49.006;9.292;2022-10-16T15:55:04;8.50;;;2.33;;
50932;SDS011;36921;49.006;9.292;2022-10-16T15:57:34;7.40;;;1.80;;
50932;SDS011;36921;49.006;9.292;2022-10-16T15:59:59;2.97;;;1.20;;
50932;SDS011;36921;49.006;9.292;2022-10-16T16:02:25;2.55;;;1.42;;
50932;SDS011;36921;49.006;9.292;2022-10-16T16:04:50;5.32;;;1.88;;
50932;SDS011;36921;49.006;9.292;2022-10-16T16:07:15;10.05;;;1.40;;
50932;SDS011;36921;49.006;9.292;2022-10-16T16:09:41;7.07;;;1.80;;
50932;SDS011;36921;49.006;9.292;2022-10-16T16:12:06;9.75;;;1.90;;
50932;SDS011;36921;49.006;9.292;2022-10-16T16:14:31;2.38;;;1.50;;
50932;SDS011;36921;49.006;9.292;2022-10-16T16:16:58;5.28;;;1.80;;
50932;SDS011;36921;49.006;9.292;2022-10-16T16:19:24;12.75;;;2.03;;
50932;SDS011;36921;49.006;9.292;2022-10-16T16:21:49;9.50;;;1.67;;
50932;SDS011;36921;49.006;9.292;2022-10-16T16:24:15;3.97;;;1.90;;
50932;SDS011;36921;49.006;9.292;2022-10-16T16:26:40;4.88;;;2.00;;
50932;SDS011;36921;49.006;9.292;2022-10-16T16:29:09;9.27;;;2.20;;
50932;SDS011;36921;49.006;9.292;2022-10-16T16:34:02;4.37;;;2.10;;
50932;SDS011;36921;49.006;9.292;2022-10-16T16:36:28;10.05;;;2.65;;
50932;SDS011;36921;49.006;9.292;2022-10-16T16:38:53;4.07;;;2.10;;
50932;SDS011;36921;49.006;9.292;2022-10-16T16:41:22;5.15;;;2.13;;
50932;SDS011;36921;49.006;9.292;2022-10-16T16:43:50;2.92;;;1.75;;
50932;SDS011;36921;49.006;9.292;2022-10-16T16:46:18;7.88;;;2.40;;
50932;SDS011;36921;49.006;9.292;2022-10-16T16:48:45;8.40;;;2.00;;
50932;SDS011;36921;49.006;9.292;2022-10-16T16:51:15;4.88;;;1.83;;
50932;SDS011;36921;49.006;9.292;2022-10-16T16:53:43;3.72;;;1.52;;
50932;SDS011;36921;49.006;9.292;2022-10-16T16:56:09;7.85;;;1.70;;
50932;SDS011;36921;49.006;9.292;2022-10-16T16:58:34;5.90;;;1.40;;
50932;SDS011;36921;49.006;9.292;2022-10-16T17:01:00;4.25;;;1.35;;
50932;SDS011;36921;49.006;9.292;2022-10-16T17:03:27;5.80;;;1.20;;
50932;SDS011;36921;49.006;9.292;2022-10-16T17:06:03;4.30;;;1.02;;
50932;SDS011;36921;49.006;9.292;2022-10-16T17:08:28;5.32;;;1.45;;
50932;SDS011;36921;49.006;9.292;2022-10-16T17:10:55;4.82;;;1.50;;